THY6805 LTAC-LTCA
Flight info
| Callsign | THY6805 |
|---|---|
| Flight time | 1h 0m |
| Altitude | 33000 |
| Route | LTAC/21R N0449F330 GOBI1D GOBIT UG8 MARTI UL614 BULUT BULU1E LTCA/07R |
| Aircraft | A321/M-CDT/C |
Departure
| Time | 2026-05-05 10:02 |
|---|---|
| Airport | Esenboğa International Airport (LTAC) |
Arrival
| Time | 2026-05-05 11:03 |
|---|---|
| Airport | Elazığ Airport (LTCA) |
| Time | Latitude | Longitude | Altitude | Speed | Heading |
|---|---|---|---|---|---|
| 2026-05-05 09:46 | 40.12914 | 33.00329 | 3126 ft | 0 kts | 126° |
| 2026-05-05 09:53 | 40.12920 | 33.00319 | 3125 ft | 3 kts | 119° |
| 2026-05-05 09:53 | 40.12927 | 33.00294 | 3126 ft | 3 kts | 88° |
| 2026-05-05 09:54 | 40.12923 | 33.00269 | 3126 ft | 3 kts | 57° |
| 2026-05-05 09:54 | 40.12913 | 33.00253 | 3123 ft | 0 kts | 32° |
| 2026-05-05 09:56 | 40.12915 | 33.00255 | 3123 ft | 1 kts | 32° |
| 2026-05-05 09:57 | 40.12926 | 33.00262 | 3126 ft | 2 kts | 26° |
| 2026-05-05 09:57 | 40.12947 | 33.00272 | 3124 ft | 4 kts | 19° |
| 2026-05-05 09:57 | 40.12979 | 33.00285 | 3122 ft | 5 kts | 17° |
| 2026-05-05 09:57 | 40.13020 | 33.00302 | 3123 ft | 7 kts | 17° |
| 2026-05-05 09:58 | 40.13071 | 33.00319 | 3125 ft | 8 kts | 11° |
| 2026-05-05 09:58 | 40.13133 | 33.00331 | 3127 ft | 9 kts | 7° |
| 2026-05-05 09:58 | 40.13201 | 33.00350 | 3127 ft | 10 kts | 20° |
| 2026-05-05 09:58 | 40.13265 | 33.00399 | 3128 ft | 11 kts | 35° |
| 2026-05-05 09:59 | 40.13332 | 33.00462 | 3129 ft | 12 kts | 36° |
| 2026-05-05 09:59 | 40.13405 | 33.00531 | 3130 ft | 13 kts | 36° |
| 2026-05-05 09:59 | 40.13483 | 33.00605 | 3131 ft | 14 kts | 36° |
| 2026-05-05 09:59 | 40.13567 | 33.00685 | 3132 ft | 15 kts | 36° |
| 2026-05-05 10:00 | 40.13593 | 33.00710 | 3132 ft | 16 kts | 36° |
| 2026-05-05 10:00 | 40.13601 | 33.00718 | 3132 ft | 16 kts | 36° |
| 2026-05-05 10:00 | 40.13692 | 33.00805 | 3133 ft | 17 kts | 36° |
| 2026-05-05 10:00 | 40.13788 | 33.00898 | 3134 ft | 18 kts | 36° |
| 2026-05-05 10:01 | 40.13888 | 33.00994 | 3135 ft | 18 kts | 36° |
| 2026-05-05 10:01 | 40.14002 | 33.01070 | 3136 ft | 19 kts | 4° |
| 2026-05-05 10:01 | 40.14101 | 33.00980 | 3136 ft | 19 kts | 292° |
| 2026-05-05 10:01 | 40.14045 | 33.00839 | 3135 ft | 20 kts | 219° |
| 2026-05-05 10:02 | 40.13814 | 33.00612 | 3133 ft | 76 kts | 216° |
| 2026-05-05 10:02 | 40.13201 | 33.00025 | 3125 ft | 139 kts | 216° |
| 2026-05-05 10:02 | 40.12285 | 32.99151 | 3215 ft | 178 kts | 216° |
| 2026-05-05 10:02 | 40.11271 | 32.98184 | 3832 ft | 184 kts | 217° |
| 2026-05-05 10:03 | 40.10235 | 32.97176 | 4288 ft | 185 kts | 217° |
| 2026-05-05 10:03 | 40.09540 | 32.96498 | 4589 ft | 185 kts | 217° |
| 2026-05-05 10:03 | 40.08508 | 32.95491 | 5040 ft | 185 kts | 217° |
| 2026-05-05 10:03 | 40.07473 | 32.94482 | 5494 ft | 186 kts | 217° |
| 2026-05-05 10:04 | 40.06430 | 32.93467 | 5944 ft | 188 kts | 217° |
| 2026-05-05 10:04 | 40.05379 | 32.92449 | 6405 ft | 189 kts | 217° |
| 2026-05-05 10:04 | 40.04319 | 32.91424 | 6862 ft | 191 kts | 217° |
| 2026-05-05 10:04 | 40.03230 | 32.90370 | 7321 ft | 199 kts | 217° |
| 2026-05-05 10:05 | 40.02026 | 32.89359 | 7782 ft | 215 kts | 204° |
| 2026-05-05 10:05 | 40.00517 | 32.88976 | 8241 ft | 232 kts | 178° |
| 2026-05-05 10:05 | 39.98897 | 32.89542 | 8663 ft | 256 kts | 150° |
| 2026-05-05 10:05 | 39.97362 | 32.90888 | 9209 ft | 273 kts | 145° |
| 2026-05-05 10:06 | 39.95774 | 32.92329 | 9769 ft | 283 kts | 145° |
| 2026-05-05 10:06 | 39.94136 | 32.93807 | 10324 ft | 289 kts | 146° |
| 2026-05-05 10:06 | 39.92442 | 32.95329 | 10889 ft | 304 kts | 146° |
| 2026-05-05 10:06 | 39.90576 | 32.96756 | 11446 ft | 319 kts | 157° |
| 2026-05-05 10:07 | 39.88408 | 32.97594 | 12005 ft | 333 kts | 172° |
| 2026-05-05 10:07 | 39.86057 | 32.97680 | 12564 ft | 345 kts | 185° |
| 2026-05-05 10:07 | 39.83622 | 32.97481 | 13116 ft | 357 kts | 180° |
| 2026-05-05 10:07 | 39.81124 | 32.97860 | 13676 ft | 368 kts | 166° |
| 2026-05-05 10:08 | 39.78716 | 32.99085 | 14231 ft | 378 kts | 151° |
| 2026-05-05 10:08 | 39.76572 | 33.01122 | 14792 ft | 388 kts | 136° |
| 2026-05-05 10:08 | 39.74850 | 33.03860 | 15344 ft | 397 kts | 123° |
| 2026-05-05 10:08 | 39.73363 | 33.06935 | 15893 ft | 406 kts | 117° |
| 2026-05-05 10:09 | 39.72387 | 33.10409 | 16452 ft | 415 kts | 102° |
| 2026-05-05 10:09 | 39.72154 | 33.14163 | 17008 ft | 422 kts | 86° |
| 2026-05-05 10:09 | 39.72715 | 33.17925 | 17560 ft | 428 kts | 70° |
| 2026-05-05 10:09 | 39.74038 | 33.21406 | 18116 ft | 433 kts | 58° |
| 2026-05-05 10:10 | 39.75624 | 33.24747 | 18836 ft | 434 kts | 58° |
| 2026-05-05 10:10 | 39.77234 | 33.28136 | 19500 ft | 436 kts | 58° |
| 2026-05-05 10:10 | 39.78828 | 33.31502 | 20150 ft | 438 kts | 58° |
| 2026-05-05 10:10 | 39.80426 | 33.34879 | 20795 ft | 439 kts | 58° |
| 2026-05-05 10:11 | 39.82022 | 33.38261 | 21415 ft | 439 kts | 58° |
| 2026-05-05 10:11 | 39.83622 | 33.41660 | 21982 ft | 440 kts | 58° |
| 2026-05-05 10:11 | 39.85137 | 33.45115 | 22517 ft | 440 kts | 65° |
| 2026-05-05 10:11 | 39.86132 | 33.48867 | 23071 ft | 439 kts | 77° |
| 2026-05-05 10:12 | 39.86514 | 33.52808 | 23588 ft | 439 kts | 89° |
| 2026-05-05 10:12 | 39.86266 | 33.56758 | 24097 ft | 440 kts | 101° |
| 2026-05-05 10:12 | 39.85418 | 33.60579 | 24591 ft | 439 kts | 110° |
| 2026-05-05 10:12 | 39.84381 | 33.64323 | 25092 ft | 439 kts | 110° |
| 2026-05-05 10:13 | 39.83345 | 33.68060 | 25591 ft | 439 kts | 110° |
| 2026-05-05 10:13 | 39.82309 | 33.71799 | 26091 ft | 439 kts | 110° |
| 2026-05-05 10:13 | 39.81276 | 33.75529 | 26598 ft | 438 kts | 110° |
| 2026-05-05 10:13 | 39.80243 | 33.79249 | 27085 ft | 437 kts | 110° |
| 2026-05-05 10:14 | 39.79210 | 33.82963 | 27597 ft | 436 kts | 110° |
| 2026-05-05 10:14 | 39.78179 | 33.86668 | 28087 ft | 435 kts | 110° |
| 2026-05-05 10:14 | 39.77145 | 33.90370 | 28477 ft | 436 kts | 110° |
| 2026-05-05 10:14 | 39.76102 | 33.94075 | 28856 ft | 437 kts | 110° |
| 2026-05-05 10:15 | 39.75049 | 33.97788 | 29232 ft | 438 kts | 110° |
| 2026-05-05 10:15 | 39.73993 | 34.01504 | 29607 ft | 439 kts | 110° |
| 2026-05-05 10:15 | 39.72933 | 34.05234 | 29983 ft | 440 kts | 110° |
| 2026-05-05 10:15 | 39.71874 | 34.08968 | 30358 ft | 441 kts | 110° |
| 2026-05-05 10:16 | 39.70813 | 34.12704 | 30733 ft | 441 kts | 110° |
| 2026-05-05 10:16 | 39.69753 | 34.16439 | 31106 ft | 441 kts | 110° |
| 2026-05-05 10:16 | 39.68689 | 34.20185 | 31407 ft | 443 kts | 110° |
| 2026-05-05 10:16 | 39.67616 | 34.23942 | 31708 ft | 445 kts | 110° |
| 2026-05-05 10:17 | 39.66537 | 34.27707 | 32009 ft | 446 kts | 110° |
| 2026-05-05 10:17 | 39.65454 | 34.31485 | 32311 ft | 447 kts | 110° |
| 2026-05-05 10:17 | 39.64370 | 34.35270 | 32607 ft | 448 kts | 110° |
| 2026-05-05 10:17 | 39.63266 | 34.39114 | 32908 ft | 449 kts | 110° |
| 2026-05-05 10:18 | 39.61060 | 34.46760 | 33010 ft | 454 kts | 110° |
| 2026-05-05 10:18 | 39.58843 | 34.54447 | 33009 ft | 456 kts | 110° |
| 2026-05-05 10:19 | 39.56622 | 34.62141 | 33010 ft | 455 kts | 110° |
| 2026-05-05 10:19 | 39.54389 | 34.69830 | 33010 ft | 456 kts | 111° |
| 2026-05-05 10:20 | 39.52149 | 34.77515 | 33009 ft | 456 kts | 111° |
| 2026-05-05 10:20 | 39.49903 | 34.85202 | 33012 ft | 456 kts | 111° |
| 2026-05-05 10:21 | 39.47654 | 34.92874 | 33013 ft | 456 kts | 111° |
| 2026-05-05 10:21 | 39.45397 | 35.00552 | 33010 ft | 456 kts | 111° |
| 2026-05-05 10:22 | 39.43137 | 35.08221 | 33008 ft | 456 kts | 111° |
| 2026-05-05 10:22 | 39.40873 | 35.15891 | 33004 ft | 457 kts | 111° |
| 2026-05-05 10:23 | 39.38617 | 35.23565 | 32999 ft | 457 kts | 110° |
| 2026-05-05 10:23 | 39.36398 | 35.31271 | 32997 ft | 458 kts | 110° |
| 2026-05-05 10:24 | 39.34174 | 35.38980 | 33008 ft | 458 kts | 110° |
| 2026-05-05 10:24 | 39.31934 | 35.46678 | 33007 ft | 458 kts | 110° |
| 2026-05-05 10:25 | 39.29691 | 35.54368 | 33002 ft | 458 kts | 111° |
| 2026-05-05 10:25 | 39.27419 | 35.62117 | 33003 ft | 458 kts | 111° |
| 2026-05-05 10:26 | 39.25159 | 35.69803 | 32997 ft | 459 kts | 111° |
| 2026-05-05 10:26 | 39.22895 | 35.77506 | 32984 ft | 460 kts | 111° |
| 2026-05-05 10:27 | 39.20616 | 35.85227 | 33001 ft | 461 kts | 111° |
| 2026-05-05 10:27 | 39.18326 | 35.92936 | 33014 ft | 460 kts | 111° |
| 2026-05-05 10:28 | 39.16042 | 36.00628 | 33023 ft | 459 kts | 110° |
| 2026-05-05 10:28 | 39.14654 | 36.08629 | 33018 ft | 458 kts | 99° |
| 2026-05-05 10:29 | 39.13639 | 36.16736 | 33019 ft | 458 kts | 99° |
| 2026-05-05 10:29 | 39.12610 | 36.24829 | 33013 ft | 458 kts | 99° |
| 2026-05-05 10:30 | 39.11570 | 36.32923 | 33002 ft | 458 kts | 99° |
| 2026-05-05 10:30 | 39.10525 | 36.41028 | 32998 ft | 459 kts | 99° |
| 2026-05-05 10:31 | 39.09475 | 36.49139 | 32996 ft | 460 kts | 99° |
| 2026-05-05 10:31 | 39.08423 | 36.57261 | 33009 ft | 460 kts | 99° |
| 2026-05-05 10:32 | 39.07364 | 36.65377 | 33009 ft | 460 kts | 99° |
| 2026-05-05 10:32 | 39.06293 | 36.73502 | 33009 ft | 461 kts | 99° |
| 2026-05-05 10:33 | 39.05216 | 36.81680 | 33009 ft | 460 kts | 99° |
| 2026-05-05 10:33 | 39.04139 | 36.89805 | 33009 ft | 461 kts | 99° |
| 2026-05-05 10:34 | 39.03057 | 36.97923 | 33009 ft | 461 kts | 99° |
| 2026-05-05 10:34 | 39.01965 | 37.06043 | 33010 ft | 461 kts | 100° |
| 2026-05-05 10:35 | 39.00869 | 37.14153 | 33009 ft | 460 kts | 100° |
| 2026-05-05 10:35 | 38.99955 | 37.20894 | 33009 ft | 461 kts | 100° |
| 2026-05-05 10:36 | 38.98847 | 37.29004 | 33009 ft | 461 kts | 100° |
| 2026-05-05 10:36 | 38.97729 | 37.37118 | 33009 ft | 461 kts | 100° |
| 2026-05-05 10:37 | 38.96610 | 37.45213 | 33009 ft | 459 kts | 100° |
| 2026-05-05 10:37 | 38.95494 | 37.53300 | 32766 ft | 460 kts | 100° |
| 2026-05-05 10:38 | 38.94926 | 37.57398 | 32348 ft | 460 kts | 100° |
| 2026-05-05 10:38 | 38.94363 | 37.61443 | 31922 ft | 460 kts | 100° |
| 2026-05-05 10:38 | 38.93798 | 37.65491 | 31475 ft | 461 kts | 100° |
| 2026-05-05 10:38 | 38.93231 | 37.69553 | 31027 ft | 463 kts | 100° |
| 2026-05-05 10:39 | 38.92660 | 37.73627 | 30579 ft | 464 kts | 100° |
| 2026-05-05 10:39 | 38.92085 | 37.77697 | 30130 ft | 463 kts | 100° |
| 2026-05-05 10:39 | 38.91509 | 37.81745 | 29678 ft | 458 kts | 100° |
| 2026-05-05 10:39 | 38.90936 | 37.85759 | 29229 ft | 456 kts | 100° |
| 2026-05-05 10:40 | 38.90368 | 37.89747 | 28776 ft | 455 kts | 100° |
| 2026-05-05 10:40 | 38.89799 | 37.93744 | 28328 ft | 455 kts | 100° |
| 2026-05-05 10:40 | 38.89231 | 37.97739 | 27877 ft | 456 kts | 100° |
| 2026-05-05 10:40 | 38.88658 | 38.01747 | 27425 ft | 457 kts | 100° |
| 2026-05-05 10:41 | 38.88084 | 38.05758 | 26975 ft | 458 kts | 100° |
| 2026-05-05 10:41 | 38.87504 | 38.09785 | 26524 ft | 459 kts | 101° |
| 2026-05-05 10:41 | 38.86918 | 38.13824 | 26072 ft | 461 kts | 101° |
| 2026-05-05 10:41 | 38.86335 | 38.17828 | 25627 ft | 453 kts | 101° |
| 2026-05-05 10:42 | 38.85208 | 38.25603 | 24884 ft | 434 kts | 101° |
| 2026-05-05 10:42 | 38.84661 | 38.29369 | 24553 ft | 424 kts | 101° |
| 2026-05-05 10:42 | 38.84125 | 38.33047 | 24229 ft | 415 kts | 101° |
| 2026-05-05 10:43 | 38.83598 | 38.36647 | 23906 ft | 408 kts | 101° |
| 2026-05-05 10:43 | 38.83078 | 38.40193 | 23575 ft | 402 kts | 101° |
| 2026-05-05 10:43 | 38.82565 | 38.43685 | 23254 ft | 396 kts | 101° |
| 2026-05-05 10:43 | 38.82060 | 38.47137 | 22929 ft | 391 kts | 101° |
| 2026-05-05 10:44 | 38.81559 | 38.50550 | 22604 ft | 388 kts | 101° |
| 2026-05-05 10:44 | 38.81058 | 38.53940 | 22278 ft | 386 kts | 101° |
| 2026-05-05 10:44 | 38.80554 | 38.57313 | 21953 ft | 385 kts | 101° |
| 2026-05-05 10:44 | 38.80050 | 38.60672 | 21627 ft | 383 kts | 101° |
| 2026-05-05 10:45 | 38.79550 | 38.64016 | 21305 ft | 381 kts | 101° |
| 2026-05-05 10:45 | 38.79053 | 38.67341 | 20976 ft | 379 kts | 101° |
| 2026-05-05 10:45 | 38.78558 | 38.70652 | 20644 ft | 378 kts | 101° |
| 2026-05-05 10:45 | 38.78055 | 38.73991 | 20320 ft | 375 kts | 101° |
| 2026-05-05 10:46 | 38.77570 | 38.77216 | 20005 ft | 373 kts | 101° |
| 2026-05-05 10:46 | 38.77072 | 38.80515 | 19700 ft | 372 kts | 101° |
| 2026-05-05 10:46 | 38.76580 | 38.83758 | 19378 ft | 370 kts | 101° |
| 2026-05-05 10:46 | 38.76092 | 38.86992 | 19052 ft | 369 kts | 101° |
| 2026-05-05 10:47 | 38.75605 | 38.90214 | 18727 ft | 367 kts | 101° |
| 2026-05-05 10:47 | 38.75127 | 38.93417 | 18401 ft | 366 kts | 101° |
| 2026-05-05 10:47 | 38.74655 | 38.96610 | 18075 ft | 364 kts | 101° |
| 2026-05-05 10:47 | 38.74190 | 38.99777 | 17750 ft | 361 kts | 101° |
| 2026-05-05 10:48 | 38.73729 | 39.02933 | 17427 ft | 359 kts | 101° |
| 2026-05-05 10:48 | 38.73267 | 39.06067 | 17156 ft | 357 kts | 101° |
| 2026-05-05 10:48 | 38.72804 | 39.09187 | 16868 ft | 356 kts | 101° |
| 2026-05-05 10:48 | 38.72342 | 39.12293 | 16599 ft | 355 kts | 101° |
| 2026-05-05 10:49 | 38.71881 | 39.15385 | 16323 ft | 354 kts | 101° |
| 2026-05-05 10:49 | 38.71178 | 39.18382 | 16049 ft | 348 kts | 114° |
| 2026-05-05 10:49 | 38.70005 | 39.21039 | 15773 ft | 340 kts | 126° |
| 2026-05-05 10:49 | 38.68447 | 39.23254 | 15495 ft | 332 kts | 139° |
| 2026-05-05 10:50 | 38.66602 | 39.24977 | 15219 ft | 325 kts | 150° |
| 2026-05-05 10:50 | 38.64560 | 39.26123 | 14944 ft | 318 kts | 166° |
| 2026-05-05 10:50 | 38.62394 | 39.26459 | 14668 ft | 312 kts | 184° |
| 2026-05-05 10:50 | 38.60304 | 39.25895 | 14392 ft | 305 kts | 203° |
| 2026-05-05 10:51 | 38.58516 | 39.24499 | 14114 ft | 299 kts | 223° |
| 2026-05-05 10:51 | 38.57209 | 39.22472 | 13840 ft | 294 kts | 241° |
| 2026-05-05 10:51 | 38.56319 | 39.20141 | 13564 ft | 290 kts | 245° |
| 2026-05-05 10:51 | 38.55457 | 39.17826 | 13276 ft | 287 kts | 245° |
| 2026-05-05 10:52 | 38.54599 | 39.15542 | 12991 ft | 284 kts | 244° |
| 2026-05-05 10:52 | 38.53747 | 39.13284 | 12711 ft | 281 kts | 244° |
| 2026-05-05 10:52 | 38.52907 | 39.11050 | 12438 ft | 279 kts | 244° |
| 2026-05-05 10:52 | 38.52071 | 39.08825 | 12171 ft | 277 kts | 244° |
| 2026-05-05 10:53 | 38.51237 | 39.06609 | 11883 ft | 276 kts | 244° |
| 2026-05-05 10:53 | 38.50409 | 39.04405 | 11617 ft | 275 kts | 244° |
| 2026-05-05 10:53 | 38.49582 | 39.02210 | 11373 ft | 274 kts | 244° |
| 2026-05-05 10:53 | 38.48756 | 39.00019 | 11132 ft | 273 kts | 244° |
| 2026-05-05 10:54 | 38.47921 | 38.97808 | 10921 ft | 273 kts | 244° |
| 2026-05-05 10:54 | 38.47099 | 38.95632 | 10726 ft | 272 kts | 244° |
| 2026-05-05 10:54 | 38.46287 | 38.93476 | 10527 ft | 267 kts | 244° |
| 2026-05-05 10:54 | 38.45492 | 38.91358 | 10323 ft | 262 kts | 245° |
| 2026-05-05 10:55 | 38.44931 | 38.89190 | 10087 ft | 257 kts | 265° |
| 2026-05-05 10:55 | 38.45141 | 38.86961 | 9829 ft | 253 kts | 291° |
| 2026-05-05 10:55 | 38.46069 | 38.85099 | 9612 ft | 250 kts | 315° |
| 2026-05-05 10:55 | 38.47527 | 38.83927 | 9353 ft | 250 kts | 341° |
| 2026-05-05 10:56 | 38.49239 | 38.83661 | 9094 ft | 250 kts | 6° |
| 2026-05-05 10:56 | 38.50872 | 38.84357 | 8852 ft | 250 kts | 32° |
| 2026-05-05 10:56 | 38.52106 | 38.85859 | 8594 ft | 244 kts | 57° |
| 2026-05-05 10:56 | 38.52720 | 38.87838 | 8313 ft | 239 kts | 82° |
| 2026-05-05 10:57 | 38.52835 | 38.89933 | 8063 ft | 234 kts | 87° |
| 2026-05-05 10:57 | 38.52913 | 38.91987 | 7816 ft | 229 kts | 88° |
| 2026-05-05 10:57 | 38.53055 | 38.93986 | 7587 ft | 223 kts | 77° |
| 2026-05-05 10:57 | 38.53426 | 38.95890 | 7364 ft | 219 kts | 76° |
| 2026-05-05 10:58 | 38.53797 | 38.97755 | 7132 ft | 215 kts | 76° |
| 2026-05-05 10:58 | 38.54160 | 38.99579 | 6952 ft | 208 kts | 76° |
| 2026-05-05 10:58 | 38.54507 | 39.01320 | 6765 ft | 198 kts | 76° |
| 2026-05-05 10:58 | 38.54832 | 39.02958 | 6576 ft | 180 kts | 76° |
| 2026-05-05 10:59 | 38.55128 | 39.04454 | 6381 ft | 168 kts | 76° |
| 2026-05-05 10:59 | 38.55410 | 39.05882 | 6186 ft | 165 kts | 76° |
| 2026-05-05 10:59 | 38.55688 | 39.07292 | 5947 ft | 163 kts | 76° |
| 2026-05-05 10:59 | 38.55963 | 39.08687 | 5686 ft | 161 kts | 76° |
| 2026-05-05 11:00 | 38.56236 | 39.10076 | 5405 ft | 161 kts | 76° |
| 2026-05-05 11:00 | 38.56507 | 39.11458 | 5135 ft | 159 kts | 76° |
| 2026-05-05 11:00 | 38.56775 | 39.12820 | 4857 ft | 157 kts | 76° |
| 2026-05-05 11:00 | 38.57039 | 39.14167 | 4581 ft | 156 kts | 76° |
| 2026-05-05 11:01 | 38.57304 | 39.15519 | 4310 ft | 154 kts | 76° |
| 2026-05-05 11:01 | 38.57564 | 39.16849 | 4150 ft | 154 kts | 76° |
| 2026-05-05 11:01 | 38.57823 | 39.18177 | 3993 ft | 154 kts | 76° |
| 2026-05-05 11:01 | 38.58081 | 39.19505 | 3817 ft | 154 kts | 76° |
| 2026-05-05 11:02 | 38.58339 | 39.20827 | 3621 ft | 153 kts | 76° |
| 2026-05-05 11:02 | 38.58595 | 39.22141 | 3459 ft | 152 kts | 76° |
| 2026-05-05 11:02 | 38.58851 | 39.23454 | 3281 ft | 152 kts | 76° |
| 2026-05-05 11:02 | 38.59106 | 39.24760 | 3126 ft | 151 kts | 76° |
| 2026-05-05 11:03 | 38.59360 | 39.26064 | 2981 ft | 151 kts | 76° |
| 2026-05-05 11:03 | 38.59606 | 39.27328 | 2923 ft | 134 kts | 76° |
| 2026-05-05 11:03 | 38.59721 | 39.27928 | 2916 ft | 9 kts | 76° |
| 2026-05-05 11:03 | 38.59740 | 39.28021 | 2915 ft | 12 kts | 67° |
| 2026-05-05 11:04 | 38.59768 | 39.28084 | 2911 ft | 5 kts | 105° |
| 2026-05-05 11:04 | 38.59751 | 39.28069 | 2912 ft | 5 kts | 244° |
| 2026-05-05 11:04 | 38.59732 | 39.27992 | 2914 ft | 12 kts | 254° |
| 2026-05-05 11:04 | 38.59707 | 39.27863 | 2917 ft | 16 kts | 256° |
| 2026-05-05 11:05 | 38.59680 | 39.27719 | 2918 ft | 17 kts | 256° |
| 2026-05-05 11:05 | 38.59652 | 39.27562 | 2917 ft | 19 kts | 258° |
| 2026-05-05 11:05 | 38.59624 | 39.27395 | 2920 ft | 19 kts | 256° |
| 2026-05-05 11:05 | 38.59590 | 39.27239 | 2921 ft | 17 kts | 255° |
| 2026-05-05 11:06 | 38.59562 | 39.27104 | 2923 ft | 14 kts | 256° |
| 2026-05-05 11:06 | 38.59551 | 39.27006 | 2924 ft | 11 kts | 274° |
| 2026-05-05 11:06 | 38.59591 | 39.26933 | 2927 ft | 11 kts | 332° |
| 2026-05-05 11:06 | 38.59672 | 39.26904 | 2927 ft | 13 kts | 347° |
| 2026-05-05 11:07 | 38.59764 | 39.26875 | 2927 ft | 11 kts | 343° |
| 2026-05-05 11:07 | 38.59846 | 39.26866 | 2926 ft | 13 kts | 23° |
| 2026-05-05 11:07 | 38.59899 | 39.26933 | 2925 ft | 10 kts | 41° |
| 2026-05-05 11:07 | 38.59948 | 39.26919 | 2925 ft | 5 kts | 307° |
| 2026-05-05 11:08 | 38.59950 | 39.26915 | 2925 ft | 0 kts | 303° |